Time;durP1;ratioP1;P1;durP2;ratioP2;P2;SDS_P1;SDS_P2;PMS_P1;PMS_P2;Temp;Humidity;BMP_temperature;BMP_pressure;BME280_temperature;BME280_humidity;BME280_pressure;Samples;Min_cycle;Max_cycle;Signal;HPM_P1;HPM_P2
2023/03/03 00:02:04;;;;;;;22.90;15.60;;;;;;;0.32;100.00;99780.41;110472;1275;22445;-69
2023/03/03 00:04:32;;;;;;;23.00;14.50;;;;;;;0.30;100.00;99780.55;110409;1275;22179;-69
2023/03/03 00:07:01;;;;;;;23.20;14.80;;;;;;;0.30;100.00;99776.35;110481;1275;22363;-70
2023/03/03 00:09:29;;;;;;;24.30;14.40;;;;;;;0.36;100.00;99772.52;110409;1275;22372;-69
2023/03/03 00:11:58;;;;;;;22.50;14.30;;;;;;;0.41;100.00;99770.63;110398;1253;23395;-69
2023/03/03 00:14:31;;;;;;;23.00;13.70;;;;;;;0.46;100.00;99769.89;110246;1275;22274;-69
2023/03/03 00:17:00;;;;;;;21.50;14.00;;;;;;;0.44;100.00;99765.10;110432;1274;22267;-69
2023/03/03 00:19:29;;;;;;;20.40;13.60;;;;;;;0.42;100.00;99763.46;110403;1275;23392;-69
2023/03/03 00:21:57;;;;;;;20.90;12.70;;;;;;;0.45;100.00;99763.16;110480;1274;22273;-69
2023/03/03 00:24:36;;;;;;;19.50;12.80;;;;;;;0.50;100.00;99758.44;110390;1275;22210;-69
2023/03/03 00:27:35;;;;;;;19.60;12.00;;;;;;;0.56;100.00;99760.38;110423;1275;22434;-69
2023/03/03 00:30:19;;;;;;;19.80;13.30;;;;;;;0.51;100.00;99757.23;110374;1269;23109;-69
2023/03/03 00:32:51;;;;;;;20.90;12.10;;;;;;;0.44;100.00;99756.36;110317;1273;23592;-69
2023/03/03 00:35:34;;;;;;;18.70;12.20;;;;;;;0.46;100.00;99753.95;110418;1275;22272;-70
2023/03/03 00:38:15;;;;;;;19.30;11.80;;;;;;;0.51;100.00;99747.89;110440;1275;22400;-69
2023/03/03 00:40:43;;;;;;;19.00;11.90;;;;;;;0.55;100.00;99741.86;110411;1274;22259;-69
2023/03/03 00:43:15;;;;;;;17.30;11.70;;;;;;;0.51;100.00;99737.00;110378;1270;22484;-69
2023/03/03 00:45:53;;;;;;;18.40;11.90;;;;;;;0.47;100.00;99735.39;110336;1270;22423;-69
2023/03/03 00:48:25;;;;;;;17.30;11.60;;;;;;;0.47;100.00;99733.30;110428;1274;22322;-69
2023/03/03 00:50:58;;;;;;;20.40;12.00;;;;;;;0.52;100.00;99732.97;110487;1274;22183;-69
2023/03/03 00:53:29;;;;;;;18.70;11.50;;;;;;;0.58;100.00;99731.06;110395;1273;22503;-69
2023/03/03 00:55:58;;;;;;;18.10;10.80;;;;;;;0.60;100.00;99730.08;110412;1275;22312;-69
2023/03/03 00:58:27;;;;;;;18.70;11.20;;;;;;;0.57;100.00;99728.27;110448;1274;22269;-69
2023/03/03 01:00:57;;;;;;;20.10;12.00;;;;;;;0.53;100.00;99722.99;110403;1274;23193;-71
2023/03/03 01:03:35;;;;;;;17.70;10.70;;;;;;;0.53;100.00;99718.27;110314;1275;22192;-70
2023/03/03 01:06:03;;;;;;;16.10;10.40;;;;;;;0.57;100.00;99712.12;110331;1274;23158;-69
2023/03/03 01:08:33;;;;;;;15.90;10.30;;;;;;;0.61;100.00;99709.42;110437;1274;22195;-70
2023/03/03 01:11:10;;;;;;;18.10;10.70;;;;;;;0.63;100.00;99704.89;110435;1274;22429;-69
2023/03/03 01:13:40;;;;;;;17.60;10.00;;;;;;;0.61;100.00;99705.87;110328;1274;22427;-70
2023/03/03 01:16:10;;;;;;;16.00;10.10;;;;;;;0.56;100.00;99700.45;110432;1274;22258;-69
2023/03/03 01:18:40;;;;;;;17.60;11.00;;;;;;;0.53;100.00;99696.05;110343;1275;22888;-69
2023/03/03 01:21:09;;;;;;;16.20;10.10;;;;;;;0.58;100.00;99697.77;110424;1274;22178;-69
2023/03/03 01:23:39;;;;;;;15.80;9.80;;;;;;;0.64;100.00;99695.31;110358;1275;23588;-70
2023/03/03 01:26:08;;;;;;;14.80;9.00;;;;;;;0.67;100.00;99693.79;110318;1275;23081;-70
2023/03/03 01:28:36;;;;;;;13.20;9.00;;;;;;;0.65;100.00;99690.61;110397;1273;22304;-70
2023/03/03 01:31:05;;;;;;;15.10;8.70;;;;;;;0.63;100.00;99686.84;110398;1275;22273;-69
2023/03/03 01:33:34;;;;;;;14.20;9.30;;;;;;;0.62;100.00;99690.17;110333;1275;22400;-69
2023/03/03 01:36:02;;;;;;;15.50;9.40;;;;;;;0.67;100.00;99688.77;110320;1275;22523;-69
2023/03/03 01:38:31;;;;;;;16.20;9.50;;;;;;;0.71;100.00;99689.24;110313;1275;117334;-70
2023/03/03 01:42:10;;;;;;;16.10;9.70;;;;;;;0.75;100.00;99675.89;105779;1305;546016;-69
2023/03/03 01:44:38;;;;;;;18.00;9.60;;;;;;;0.70;100.00;99683.08;109459;1289;22245;-69
2023/03/03 01:47:09;;;;;;;16.40;10.20;;;;;;;0.66;100.00;99680.11;109475;1289;22349;-69
2023/03/03 01:49:50;;;;;;;14.90;10.00;;;;;;;0.71;100.00;99679.85;109200;1289;22230;-69
2023/03/03 01:52:29;;;;;;;17.40;10.90;;;;;;;0.77;100.00;99670.56;109370;1288;22495;-69
2023/03/03 01:55:02;;;;;;;16.60;9.80;;;;;;;0.77;100.00;99668.05;108949;1287;206044;-69
2023/03/03 01:57:32;;;;;;;19.10;10.70;;;;;;;0.72;100.00;99661.95;110205;1272;23297;-69
2023/03/03 02:00:01;;;;;;;18.30;10.50;;;;;;;0.70;100.00;99660.98;110206;1270;22204;-69
2023/03/03 02:02:39;;;;;;;16.80;10.10;;;;;;;0.75;100.00;99662.50;110223;1276;22851;-69
2023/03/03 02:05:08;;;;;;;16.50;9.30;;;;;;;0.80;100.00;99660.45;110299;1275;23039;-69
2023/03/03 02:07:36;;;;;;;15.10;9.50;;;;;;;0.81;100.00;99661.65;110320;1269;22878;-69
2023/03/03 02:10:08;;;;;;;14.30;8.70;;;;;;;0.78;100.00;99659.35;110230;1276;22414;-69
2023/03/03 02:12:49;;;;;;;13.70;9.00;;;;;;;0.77;100.00;99658.16;110347;1269;22321;-70
2023/03/03 02:15:34;;;;;;;14.40;9.10;;;;;;;0.81;100.00;99654.89;110395;1276;23111;-69
2023/03/03 02:18:13;;;;;;;13.50;8.50;;;;;;;0.82;100.00;99649.32;110241;1276;22454;-69
2023/03/03 02:21:00;;;;;;;13.10;8.40;;;;;;;0.82;100.00;99651.46;110168;1270;22188;-69
2023/03/03 02:23:39;;;;;;;13.20;8.60;;;;;;;0.76;100.00;99646.95;110389;1274;22222;-69
2023/03/03 02:26:09;;;;;;;15.60;9.40;;;;;;;0.72;100.00;99645.97;110002;1276;22779;-69
2023/03/03 02:28:39;;;;;;;14.50;9.20;;;;;;;0.75;100.00;99644.89;110265;1276;22216;-69
2023/03/03 02:31:12;;;;;;;13.80;8.80;;;;;;;0.80;100.00;99645.98;110201;1276;22293;-69
2023/03/03 02:33:49;;;;;;;14.90;9.10;;;;;;;0.81;100.00;99639.63;110316;1276;23154;-69
2023/03/03 02:36:23;;;;;;;17.60;10.10;;;;;;;0.79;100.00;99640.17;110261;1276;22212;-69
2023/03/03 02:39:12;;;;;;;15.70;10.10;;;;;;;0.76;100.00;99638.98;110351;1269;22261;-69
2023/03/03 02:41:45;;;;;;;16.10;10.10;;;;;;;0.78;100.00;99633.79;110349;1276;22483;-69
2023/03/03 02:44:15;;;;;;;14.90;10.10;;;;;;;0.83;100.00;99636.21;110241;1276;22999;-69
2023/03/03 02:46:45;;;;;;;17.20;10.10;;;;;;;0.86;100.00;99634.71;110157;1274;23614;-69
2023/03/03 02:49:16;;;;;;;16.40;10.10;;;;;;;0.85;100.00;99634.42;110350;1276;22337;-69
2023/03/03 02:51:44;;;;;;;15.90;9.80;;;;;;;0.82;100.00;99628.73;110167;1276;22455;-69
2023/03/03 02:54:14;;;;;;;15.60;10.80;;;;;;;0.80;100.00;99628.39;110259;1270;22341;-69
2023/03/03 02:56:43;;;;;;;17.40;9.80;;;;;;;0.84;100.00;99629.23;110181;1276;22238;-69
2023/03/03 02:59:11;;;;;;;17.60;9.50;;;;;;;0.88;100.00;99622.58;110177;1272;22340;-69
2023/03/03 03:01:45;;;;;;;16.50;10.20;;;;;;;0.91;100.00;99621.70;110241;1276;22366;-69
2023/03/03 03:04:20;;;;;;;17.70;11.10;;;;;;;0.87;100.00;99620.23;110197;1276;22509;-69
2023/03/03 03:06:50;;;;;;;17.10;9.90;;;;;;;0.84;100.00;99614.55;110352;1276;23004;-69
2023/03/03 03:09:19;;;;;;;16.50;10.40;;;;;;;0.83;100.00;99615.05;110163;1276;22389;-69
2023/03/03 03:11:49;;;;;;;17.90;11.00;;;;;;;0.87;100.00;99618.59;110186;1276;22273;-69
2023/03/03 03:14:24;;;;;;;16.70;10.70;;;;;;;0.91;100.00;99612.93;110374;1276;22199;-69
2023/03/03 03:16:54;;;;;;;17.60;11.10;;;;;;;0.92;100.00;99610.73;110213;1276;23035;-69
2023/03/03 03:19:22;;;;;;;16.90;11.00;;;;;;;0.89;100.00;99605.45;110373;1271;22350;-69
2023/03/03 03:21:51;;;;;;;16.30;10.40;;;;;;;0.85;100.00;99611.87;110197;1276;22181;-69
2023/03/03 03:24:20;;;;;;;18.10;11.80;;;;;;;0.81;100.00;99607.33;110387;1276;22812;-69
2023/03/03 03:26:54;;;;;;;17.00;10.60;;;;;;;0.83;100.00;99605.61;110229;1276;22296;-69
2023/03/03 03:29:22;;;;;;;18.50;11.10;;;;;;;0.88;100.00;99605.02;110229;1276;22335;-69
2023/03/03 03:31:51;;;;;;;17.40;10.80;;;;;;;0.92;100.00;99598.70;110379;1276;22335;-70
2023/03/03 03:34:20;;;;;;;16.60;10.80;;;;;;;0.88;100.00;99598.96;110281;1270;22194;-69
2023/03/03 03:36:49;;;;;;;19.10;11.70;;;;;;;0.84;100.00;99599.17;110173;1276;23207;-69
2023/03/03 03:39:38;;;;;;;17.90;11.30;;;;;;;0.82;100.00;99591.05;110167;1276;23189;-69
2023/03/03 03:42:06;;;;;;;17.50;10.60;;;;;;;0.87;100.00;99587.05;110386;1276;22806;-69
2023/03/03 03:44:36;;;;;;;18.10;11.10;;;;;;;0.91;100.00;99585.59;110155;1276;22320;-69
2023/03/03 03:47:08;;;;;;;17.60;10.90;;;;;;;0.92;100.00;99585.09;110265;1276;22337;-70
2023/03/03 03:49:37;;;;;;;17.50;11.10;;;;;;;0.87;100.00;99579.71;110336;1270;23410;-69
2023/03/03 03:52:05;;;;;;;16.70;10.80;;;;;;;0.83;100.00;99577.91;110373;1276;22441;-69
2023/03/03 03:54:34;;;;;;;15.10;10.40;;;;;;;0.87;100.00;99575.46;110178;1273;22328;-68
2023/03/03 03:57:02;;;;;;;15.20;9.50;;;;;;;0.92;100.00;99577.91;110189;1276;22423;-69
2023/03/03 03:59:31;;;;;;;15.40;10.10;;;;;;;0.94;100.00;99577.73;110387;1275;23021;-69
2023/03/03 04:02:00;;;;;;;13.10;9.60;;;;;;;0.91;100.00;99571.48;110268;1275;22210;-68
2023/03/03 04:04:28;;;;;;;16.10;10.20;;;;;;;0.86;100.00;99570.40;110344;1271;23043;-69
2023/03/03 04:06:58;;;;;;;16.50;9.90;;;;;;;0.84;100.00;99568.26;109963;1276;25375;-68
2023/03/03 04:09:27;;;;;;;14.90;9.20;;;;;;;0.88;100.00;99566.85;107519;1270;23124;-68
2023/03/03 04:11:56;;;;;;;15.50;9.60;;;;;;;0.93;100.00;99572.47;107611;1272;22584;-69
2023/03/03 04:14:30;;;;;;;16.00;10.10;;;;;;;0.89;100.00;99570.42;107568;1272;26325;-69
2023/03/03 04:16:59;;;;;;;13.70;8.70;;;;;;;0.85;100.00;99563.30;107563;1270;23732;-69
2023/03/03 04:19:28;;;;;;;18.10;10.60;;;;;;;0.83;100.00;99557.63;107464;1276;22527;-69
2023/03/03 04:21:57;;;;;;;16.10;9.80;;;;;;;0.86;100.00;99554.82;107429;1270;22510;-69
2023/03/03 04:24:26;;;;;;;17.10;10.30;;;;;;;0.91;100.00;99555.15;107621;1276;25229;-69
2023/03/03 04:26:55;;;;;;;19.00;11.50;;;;;;;0.93;100.00;99554.27;107990;1269;22772;-69
2023/03/03 04:29:24;;;;;;;18.60;10.60;;;;;;;0.89;100.00;99551.48;107495;1270;22569;-69
2023/03/03 04:31:52;;;;;;;17.40;10.80;;;;;;;0.83;100.00;99554.66;109350;1276;22249;-69
2023/03/03 04:34:21;;;;;;;18.40;9.60;;;;;;;0.78;100.00;99544.83;110131;1270;22346;-69
2023/03/03 04:36:49;;;;;;;18.60;9.50;;;;;;;0.80;100.00;99543.70;110424;1276;23047;-69
2023/03/03 04:39:21;;;;;;;15.90;9.90;;;;;;;0.84;100.00;99540.59;110358;1271;22286;-69
2023/03/03 04:41:50;;;;;;;13.90;9.20;;;;;;;0.87;100.00;99542.19;110145;1276;23023;-69
2023/03/03 04:44:18;;;;;;;13.90;9.50;;;;;;;0.85;100.00;99539.98;110287;1275;22194;-69
2023/03/03 04:46:49;;;;;;;16.40;9.90;;;;;;;0.83;100.00;99537.79;110191;1275;22308;-69
2023/03/03 04:49:17;;;;;;;14.40;9.00;;;;;;;0.81;100.00;99535.86;110249;1275;22376;-69
2023/03/03 04:51:47;;;;;;;13.80;8.70;;;;;;;0.86;100.00;99536.05;110099;1276;22289;-70
2023/03/03 04:54:16;;;;;;;15.10;9.40;;;;;;;0.91;100.00;99535.49;110138;1275;22382;-70
2023/03/03 04:56:45;;;;;;;14.00;9.30;;;;;;;0.89;100.00;99538.99;110184;1276;22257;-69
2023/03/03 04:59:14;;;;;;;14.80;8.90;;;;;;;0.86;100.00;99538.02;110127;1276;22839;-69
2023/03/03 05:01:45;;;;;;;14.20;9.10;;;;;;;0.86;100.00;99536.46;110192;1276;22282;-70
2023/03/03 05:04:14;;;;;;;13.80;8.70;;;;;;;0.91;100.00;99534.25;110129;1276;22440;-69
2023/03/03 05:06:43;;;;;;;12.50;9.00;;;;;;;0.97;100.00;99535.58;110324;1270;22251;-69
2023/03/03 05:09:13;;;;;;;13.80;8.60;;;;;;;0.98;100.00;99532.94;110337;1270;23178;-68
2023/03/03 05:11:41;;;;;;;13.80;8.80;;;;;;;0.96;100.00;99533.14;110360;1276;22408;-69
2023/03/03 05:14:11;;;;;;;14.20;9.60;;;;;;;0.95;100.00;99531.75;110371;1276;22254;-69
2023/03/03 05:16:39;;;;;;;13.80;9.10;;;;;;;1.01;100.00;99535.07;110301;1271;22223;-70
2023/03/03 05:19:08;;;;;;;13.70;8.80;;;;;;;1.06;100.00;99535.69;110378;1276;22392;-69
2023/03/03 05:21:41;;;;;;;16.40;10.00;;;;;;;1.08;100.00;99533.70;110405;1276;22366;-69
2023/03/03 05:24:10;;;;;;;15.10;9.30;;;;;;;1.08;100.00;99533.70;110377;1276;22171;-69
2023/03/03 05:26:41;;;;;;;14.70;9.50;;;;;;;1.08;100.00;99530.86;110337;1269;23031;-70
2023/03/03 05:29:09;;;;;;;16.00;9.60;;;;;;;1.13;100.00;99528.14;110363;1270;22754;-70
2023/03/03 05:31:37;;;;;;;15.30;9.30;;;;;;;1.22;100.00;99524.17;110230;1270;22908;-70
2023/03/03 05:34:06;;;;;;;15.30;10.10;;;;;;;1.24;100.00;99522.99;110128;1276;22213;-70
2023/03/03 05:36:34;;;;;;;13.40;8.70;;;;;;;1.22;100.00;99525.56;110359;1276;22935;-69
2023/03/03 05:39:03;;;;;;;12.20;8.60;;;;;;;1.28;100.00;99525.08;110380;1276;22346;-69
2023/03/03 05:41:35;;;;;;;15.20;9.10;;;;;;;1.34;100.00;99526.34;110394;1276;22904;-70
2023/03/03 05:44:04;;;;;;;14.10;8.80;;;;;;;1.35;100.00;99523.74;110343;1276;22219;-69
2023/03/03 05:46:33;;;;;;;15.30;9.00;;;;;;;1.34;100.00;99519.50;110376;1276;22855;-69
2023/03/03 05:49:01;;;;;;;14.20;8.80;;;;;;;1.34;100.00;99521.35;110380;1276;22984;-70
2023/03/03 05:51:29;;;;;;;13.50;8.60;;;;;;;1.37;100.00;99520.30;110283;1269;22334;-69
2023/03/03 05:53:58;;;;;;;14.60;9.10;;;;;;;1.40;100.00;99516.73;110279;1270;22325;-69
2023/03/03 05:56:26;;;;;;;18.40;9.50;;;;;;;1.41;100.00;99512.48;110325;1276;22251;-69
2023/03/03 05:58:54;;;;;;;15.50;9.60;;;;;;;1.41;100.00;99507.94;110369;1274;22220;-69
2023/03/03 06:01:23;;;;;;;13.60;9.10;;;;;;;1.42;100.00;99510.52;110349;1270;23491;-70
2023/03/03 06:03:52;;;;;;;14.20;8.70;;;;;;;1.49;100.00;99509.56;110310;1270;22889;-69
2023/03/03 06:06:20;;;;;;;11.90;8.20;;;;;;;1.57;100.00;99507.73;110393;1276;22260;-70
2023/03/03 06:08:49;;;;;;;12.90;8.60;;;;;;;1.56;100.00;99511.25;110394;1276;24044;-69
2023/03/03 06:11:20;;;;;;;13.00;8.70;;;;;;;1.54;100.00;99510.10;110358;1276;22883;-69
2023/03/03 06:14:05;;;;;;;13.50;8.20;;;;;;;1.60;100.00;99506.02;110100;1276;22519;-69
2023/03/03 06:16:33;;;;;;;11.70;7.90;;;;;;;1.63;100.00;99508.95;110350;1270;23094;-71
2023/03/03 06:19:02;;;;;;;12.30;8.00;;;;;;;1.64;100.00;99507.96;110149;1273;22373;-70
2023/03/03 06:21:31;;;;;;;12.80;8.70;;;;;;;1.65;100.00;99512.08;110379;1276;22260;-71
2023/03/03 06:23:59;;;;;;;11.40;8.00;;;;;;;1.69;100.00;99511.83;110342;1275;22339;-69
2023/03/03 06:26:27;;;;;;;11.90;8.00;;;;;;;1.71;100.00;99503.31;110282;1270;23027;-69
2023/03/03 06:28:56;;;;;;;12.30;8.20;;;;;;;1.67;100.00;99502.64;110111;1272;22240;-70
2023/03/03 06:31:24;;;;;;;13.10;8.20;;;;;;;1.63;100.00;99504.08;110270;1270;22341;-70
2023/03/03 06:33:53;;;;;;;10.90;7.60;;;;;;;1.62;100.00;99502.58;110334;1276;22197;-70
2023/03/03 06:36:22;;;;;;;12.30;8.00;;;;;;;1.64;100.00;99501.97;110186;1276;22173;-69
2023/03/03 06:38:50;;;;;;;13.20;8.20;;;;;;;1.66;100.00;99501.12;110302;1276;22276;-69
2023/03/03 06:41:19;;;;;;;13.00;8.40;;;;;;;1.67;100.00;99495.96;110387;1276;22900;-69
2023/03/03 06:43:47;;;;;;;14.70;9.00;;;;;;;1.64;100.00;99497.01;108394;1276;23350;-69
2023/03/03 06:46:16;;;;;;;12.60;8.20;;;;;;;1.63;100.00;99493.59;107591;1270;22546;-69
2023/03/03 06:48:44;;;;;;;13.90;9.10;;;;;;;1.68;100.00;99494.63;107517;1276;25298;-69
2023/03/03 06:51:23;;;;;;;12.90;7.90;;;;;;;1.73;100.00;99500.58;108240;1269;26518;-69
2023/03/03 06:54:00;;;;;;;13.70;9.20;;;;;;;1.69;100.00;99502.21;107578;1276;25418;-69
2023/03/03 06:56:29;;;;;;;13.90;9.00;;;;;;;1.65;100.00;99499.73;107616;1276;22760;-69
2023/03/03 06:59:11;;;;;;;14.30;9.30;;;;;;;1.73;100.00;99496.56;107201;1276;25345;-69
2023/03/03 07:01:40;;;;;;;15.30;9.00;;;;;;;1.80;100.00;99490.18;107536;1276;22552;-69
2023/03/03 07:04:32;;;;;;;12.50;8.80;;;;;;;1.81;100.00;99491.38;107483;1276;24257;-69
2023/03/03 07:07:15;;;;;;;15.40;9.80;;;;;;;1.81;100.00;99485.63;110280;1275;22364;-69
2023/03/03 07:09:44;;;;;;;14.00;8.50;;;;;;;1.87;100.00;99487.18;110194;1276;22321;-69
2023/03/03 07:12:18;;;;;;;14.70;9.40;;;;;;;1.99;100.00;99481.64;110387;1276;22207;-69
2023/03/03 07:14:54;;;;;;;15.70;9.30;;;;;;;2.10;100.00;99485.66;110417;1276;22349;-69
2023/03/03 07:17:24;;;;;;;15.20;9.30;;;;;;;2.16;100.00;99481.84;110390;1276;23187;-69
2023/03/03 07:19:53;;;;;;;15.70;9.80;;;;;;;2.25;100.00;99480.55;110376;1276;22619;-69
2023/03/03 07:22:23;;;;;;;17.00;9.40;;;;;;;2.33;100.00;99480.61;110187;1276;22346;-69
2023/03/03 07:24:57;;;;;;;14.50;9.10;;;;;;;2.47;100.00;99482.30;110197;1276;22423;-69
2023/03/03 07:27:27;;;;;;;15.30;10.20;;;;;;;2.56;100.00;99478.72;110382;1276;22944;-69
2023/03/03 07:30:28;;;;;;;16.40;10.10;;;;;;;2.57;100.00;99479.25;110395;1276;23397;-69
2023/03/03 07:32:57;;;;;;;15.10;9.80;;;;;;;2.55;100.00;99475.33;110072;1276;22276;-69
2023/03/03 07:35:30;;;;;;;13.60;9.00;;;;;;;2.58;100.00;99469.02;110410;1276;23120;-69
2023/03/03 07:37:58;;;;;;;13.40;9.70;;;;;;;2.62;100.00;99468.11;110416;1276;22233;-69
2023/03/03 07:40:35;;;;;;;15.20;10.10;;;;;;;2.61;100.00;99464.59;110203;1276;22260;-69
2023/03/03 07:43:30;;;;;;;15.10;10.20;;;;;;;2.61;100.00;99465.27;110394;1276;22227;-69
2023/03/03 07:46:13;;;;;;;14.40;8.90;;;;;;;2.64;100.00;99460.47;110414;1276;22253;-69
2023/03/03 07:48:43;;;;;;;12.60;8.80;;;;;;;2.78;100.00;99459.78;110185;1275;22227;-69
2023/03/03 07:51:40;;;;;;;13.40;9.60;;;;;;;2.86;100.00;99454.94;110033;1277;22255;-69
2023/03/03 07:54:27;;;;;;;14.80;9.40;;;;;;;2.92;100.00;99453.46;110165;1277;22164;-69
2023/03/03 07:57:01;;;;;;;13.00;9.80;;;;;;;2.95;100.00;99453.05;110304;1276;22879;-69
2023/03/03 07:59:31;;;;;;;15.20;9.40;;;;;;;3.00;100.00;99449.08;110185;1276;22411;-68
2023/03/03 08:02:00;;;;;;;14.50;9.00;;;;;;;3.08;100.00;99444.00;110177;1276;22305;-68
2023/03/03 08:04:32;;;;;;;13.80;9.60;;;;;;;3.13;100.00;99441.60;110177;1276;22469;-69
2023/03/03 08:07:01;;;;;;;14.20;9.90;;;;;;;3.19;100.00;99441.38;110170;1273;22325;-69
2023/03/03 08:09:43;;;;;;;15.70;9.90;;;;;;;3.25;100.00;99437.60;110163;1273;22208;-69
2023/03/03 08:12:36;;;;;;;18.40;11.00;;;;;;;3.29;100.00;99439.23;110391;1276;23065;-72
2023/03/03 08:15:16;;;;;;;14.20;9.50;;;;;;;3.36;100.00;99428.42;110434;1276;22343;-68
2023/03/03 08:17:46;;;;;;;17.10;9.60;;;;;;;3.53;100.00;99424.54;110378;1276;22973;-69
2023/03/03 08:20:27;;;;;;;16.30;10.60;;;;;;;3.56;100.00;99421.88;110413;1276;22843;-69
2023/03/03 08:22:56;;;;;;;16.10;10.40;;;;;;;3.57;100.00;99415.45;110389;1276;22451;-69
2023/03/03 08:25:24;;;;;;;16.50;10.10;;;;;;;3.57;100.00;99405.27;110369;1276;22200;-71
2023/03/03 08:27:52;;;;;;;16.10;10.10;;;;;;;3.60;100.00;99402.85;110374;1276;22214;-69
2023/03/03 08:30:25;;;;;;;15.90;10.90;;;;;;;3.65;100.00;99396.79;110423;1275;22292;-70
2023/03/03 08:32:53;;;;;;;15.40;10.00;;;;;;;3.69;100.00;99399.63;110385;1276;22200;-69
2023/03/03 08:35:22;;;;;;;14.20;9.40;;;;;;;3.71;100.00;99395.73;110428;1276;22320;-69
2023/03/03 08:37:51;;;;;;;15.90;10.40;;;;;;;3.67;100.00;99386.39;110387;1276;22408;-70
2023/03/03 08:40:20;;;;;;;16.40;10.70;;;;;;;3.64;100.00;99388.37;110397;1276;22275;-69
2023/03/03 08:42:49;;;;;;;16.80;10.00;;;;;;;3.66;100.00;99387.76;110432;1276;22198;-69
2023/03/03 08:45:18;;;;;;;16.70;10.40;;;;;;;3.70;100.00;99387.17;110394;1276;22240;-70
2023/03/03 08:47:47;;;;;;;15.90;10.00;;;;;;;3.72;100.00;99380.31;107777;1276;22569;-69
2023/03/03 08:50:17;;;;;;;16.30;10.10;;;;;;;3.69;100.00;99373.61;107296;1276;22544;-69
2023/03/03 08:52:46;;;;;;;15.50;10.80;;;;;;;3.65;100.00;99369.34;107596;1276;25373;-68
2023/03/03 08:55:15;;;;;;;15.40;10.50;;;;;;;3.66;100.00;99363.85;107693;1276;25334;-69
2023/03/03 08:57:44;;;;;;;16.20;10.50;;;;;;;3.69;100.00;99359.56;107582;1276;25488;-69
2023/03/03 09:00:14;;;;;;;15.70;10.60;;;;;;;3.70;100.00;99357.69;107647;1276;24051;-69
2023/03/03 09:02:42;;;;;;;15.50;10.00;;;;;;;3.69;100.00;99359.23;107774;1276;22514;-69
2023/03/03 09:05:11;;;;;;;17.10;11.40;;;;;;;3.70;100.00;99356.52;107350;1276;22549;-69
2023/03/03 09:07:39;;;;;;;16.70;10.40;;;;;;;3.70;100.00;99355.86;107701;1276;25385;-69
2023/03/03 09:10:08;;;;;;;19.40;12.00;;;;;;;3.68;100.00;99355.67;107597;1254;22553;-69
2023/03/03 09:12:47;;;;;;;18.30;11.80;;;;;;;3.66;100.00;99355.56;107640;1276;25338;-69
2023/03/03 09:15:16;;;;;;;17.30;11.00;;;;;;;3.65;100.00;99354.73;107614;1273;22988;-69
2023/03/03 09:17:44;;;;;;;18.80;11.20;;;;;;;3.69;100.00;99352.08;107549;1276;22523;-69
2023/03/03 09:20:33;;;;;;;16.20;10.30;;;;;;;3.78;100.00;99346.30;107669;1270;26507;-69
2023/03/03 09:23:26;;;;;;;17.20;11.40;;;;;;;3.96;100.00;99347.55;110416;1275;22247;-70
2023/03/03 09:26:34;;;;;;;18.70;11.30;;;;;;;4.03;100.00;99348.00;110379;1276;22224;-70
2023/03/03 09:29:13;;;;;;;16.00;10.60;;;;;;;4.02;100.00;99343.83;110426;1276;22202;-70
2023/03/03 09:31:43;;;;;;;17.80;11.60;;;;;;;3.96;100.00;99338.06;110397;1276;22410;-70
2023/03/03 09:34:26;;;;;;;19.80;11.30;;;;;;;3.88;100.00;99337.31;110161;1272;22216;-70
2023/03/03 09:36:54;;;;;;;15.90;11.10;;;;;;;3.83;100.00;99327.30;110407;1276;22325;-69
2023/03/03 09:39:28;;;;;;;17.10;11.30;;;;;;;3.80;100.00;99326.91;110423;1276;22208;-70
2023/03/03 09:42:08;;;;;;;18.30;12.70;;;;;;;3.78;100.00;99322.57;110095;1276;23641;-69
2023/03/03 09:44:40;;;;;;;15.70;10.80;;;;;;;3.79;100.00;99318.33;110366;1276;22790;-70
2023/03/03 09:47:18;;;;;;;15.80;10.20;;;;;;;3.80;100.00;99314.67;110408;1276;22216;-68
2023/03/03 09:50:08;;;;;;;15.80;10.10;;;;;;;3.93;100.00;99308.75;110342;1276;22460;-68
2023/03/03 09:53:07;;;;;;;17.20;10.80;;;;;;;4.13;100.00;99302.29;110364;1276;23091;-69
2023/03/03 09:55:47;;;;;;;16.20;10.70;;;;;;;4.20;100.00;99301.38;110392;1276;22956;-68
2023/03/03 09:58:48;;;;;;;13.70;9.20;;;;;;;4.20;100.00;99297.91;110378;1276;22395;-69
2023/03/03 10:01:23;;;;;;;14.60;9.50;;;;;;;4.23;100.00;99292.68;110191;1276;23080;-69
2023/03/03 10:04:16;;;;;;;14.10;9.10;;;;;;;4.32;100.00;99285.94;110435;1276;22222;-69
2023/03/03 10:06:52;;;;;;;14.60;8.70;;;;;;;4.43;100.00;99281.98;110404;1276;22261;-69
2023/03/03 10:09:39;;;;;;;14.60;9.30;;;;;;;4.52;100.00;99273.20;110395;1276;22195;-69
2023/03/03 10:12:27;;;;;;;13.20;8.60;;;;;;;4.69;100.00;99263.25;110377;1276;22408;-69
2023/03/03 10:15:15;;;;;;;12.40;8.20;;;;;;;4.83;100.00;99255.91;110456;1276;22193;-69
2023/03/03 10:17:46;;;;;;;12.80;8.80;;;;;;;4.93;100.00;99250.48;110206;1276;22279;-69
2023/03/03 10:20:21;;;;;;;12.70;8.90;;;;;;;5.02;100.00;99246.34;110210;1276;22268;-69
2023/03/03 10:22:52;;;;;;;15.10;8.60;;;;;;;5.10;100.00;99244.13;110443;1276;22165;-70
2023/03/03 10:25:32;;;;;;;12.60;7.00;;;;;;;5.24;100.00;99239.64;110203;1276;22935;-70
2023/03/03 10:28:20;;;;;;;13.40;8.00;;;;;;;5.33;100.00;99234.04;110417;1276;22205;-69
2023/03/03 10:31:07;;;;;;;9.90;6.90;;;;;;;5.38;100.00;99227.02;110419;1276;22418;-69
2023/03/03 10:33:45;;;;;;;12.20;7.20;;;;;;;5.46;100.00;99222.06;110367;1273;22265;-69
2023/03/03 10:36:32;;;;;;;9.80;6.30;;;;;;;5.52;100.00;99221.60;110383;1276;22213;-69
2023/03/03 10:39:13;;;;;;;11.10;7.30;;;;;;;5.63;100.00;99215.89;110409;1276;22995;-69
2023/03/03 10:42:10;;;;;;;11.10;7.70;;;;;;;5.71;100.00;99211.88;110276;1277;22934;-69
2023/03/03 10:44:47;;;;;;;9.80;6.40;;;;;;;5.83;100.00;99209.59;110281;1278;22668;-69
2023/03/03 10:47:35;;;;;;;11.00;6.70;;;;;;;5.85;100.00;99203.64;110303;1277;22399;-69
2023/03/03 10:50:22;;;;;;;9.10;6.00;;;;;;;5.88;100.00;99199.79;110300;1276;22851;-69
2023/03/03 10:53:01;;;;;;;8.20;5.70;;;;;;;5.93;100.00;99192.48;110452;1276;22230;-69
2023/03/03 10:55:54;;;;;;;9.80;6.20;;;;;;;5.98;100.00;99185.31;110441;1276;22687;-69
2023/03/03 10:58:31;;;;;;;9.70;5.80;;;;;;;6.02;100.00;99181.41;110222;1270;22208;-69
2023/03/03 11:01:06;;;;;;;10.70;5.80;;;;;;;5.90;100.00;99171.17;110227;1276;22199;-69
2023/03/03 11:03:46;;;;;;;8.20;5.40;;;;;;;5.89;100.00;99166.52;110424;1276;22259;-69
2023/03/03 11:06:33;;;;;;;10.60;5.20;;;;;;;5.94;100.00;99162.09;110385;1276;23026;-69
2023/03/03 11:09:23;;;;;;;9.40;6.40;;;;;;;5.98;100.00;99160.95;110212;1273;22275;-69
2023/03/03 11:12:23;;;;;;;9.90;5.80;;;;;;;5.97;100.00;99150.39;110234;1276;23288;-69
2023/03/03 11:15:01;;;;;;;9.10;5.80;;;;;;;5.97;100.00;99152.34;110423;1276;22208;-69
2023/03/03 11:17:55;;;;;;;10.00;5.80;;;;;;;5.96;100.00;99149.90;110257;1276;22234;-69
2023/03/03 11:20:36;;;;;;;10.50;6.40;;;;;;;5.95;100.00;99144.44;110377;1276;23067;-69
2023/03/03 11:23:08;;;;;;;9.90;6.40;;;;;;;5.90;100.00;99145.84;110216;1276;22394;-69
2023/03/03 11:26:06;;;;;;;9.90;6.10;;;;;;;5.82;100.00;99139.80;110391;1276;22554;-69
2023/03/03 11:28:54;;;;;;;9.90;6.10;;;;;;;5.80;100.00;99138.05;110369;1270;22215;-69
2023/03/03 11:31:29;;;;;;;11.90;6.30;;;;;;;5.75;100.00;99134.64;110364;1276;22222;-70
2023/03/03 11:34:18;;;;;;;8.20;5.90;;;;;;;5.69;100.00;99132.91;110355;1273;22258;-69
2023/03/03 11:36:56;;;;;;;9.30;5.60;;;;;;;5.66;100.00;99130.72;110207;1276;22341;-69
2023/03/03 11:39:27;;;;;;;6.80;4.50;;;;;;;5.62;100.00;99125.32;110224;1276;22398;-69
2023/03/03 11:42:15;;;;;;;7.60;4.70;;;;;;;5.65;100.00;99126.38;110411;1276;22412;-70
2023/03/03 11:44:55;;;;;;;7.70;4.80;;;;;;;5.71;100.00;99122.17;110416;1276;23253;-69
2023/03/03 11:47:25;;;;;;;8.20;4.40;;;;;;;5.72;100.00;99120.46;109594;1276;25320;-69